Time;durP1;ratioP1;P1;durP2;ratioP2;P2;SDS_P1;SDS_P2;PMS_P1;PMS_P2;Temp;Humidity;BMP_temperature;BMP_pressure;BME280_temperature;BME280_humidity;BME280_pressure;Samples;Min_cycle;Max_cycle;Signal;HPM_P1;HPM_P2
2023/06/14 00:00:57;;;;;;;;;1.25;1.25;;;;;8.75;100.00;98342.88;4886090;28;101707;-74
2023/06/14 00:03:33;;;;;;;;;1.00;1.00;;;;;8.71;100.00;98346.16;4851932;28;103607;-74
2023/06/14 00:06:17;;;;;;;;;1.00;1.00;;;;;8.29;100.00;98274.28;4846851;28;101824;-74
2023/06/14 00:09:01;;;;;;;;;1.00;1.00;;;;;8.62;100.00;98328.47;4832287;28;101891;-74
2023/06/14 00:11:57;;;;;;;;;2.25;1.00;;;;;8.59;100.00;98340.50;4852292;28;101532;-74
2023/06/14 00:14:44;;;;;;;;;0.75;0.75;;;;;8.54;99.63;98337.53;4854541;28;107251;-74
2023/06/14 00:17:31;;;;;;;;;1.50;1.00;;;;;8.46;100.00;98338.53;4853423;28;103027;-74
2023/06/14 00:19:59;;;;;;;;;3.75;3.00;;;;;8.36;100.00;98331.78;4855141;28;101531;-74
2023/06/14 00:22:28;;;;;;;;;2.00;1.75;;;;;8.34;100.00;98333.81;4857465;28;101583;-74
2023/06/14 00:24:55;;;;;;;;;1.00;1.00;;;;;8.33;100.00;98340.25;4851497;28;103433;-73
2023/06/14 00:27:22;;;;;;;;;1.50;1.00;;;;;8.33;100.00;98335.69;4864343;28;101924;-74
2023/06/14 00:29:49;;;;;;;;;2.00;1.75;;;;;8.36;100.00;98342.56;4853839;28;101667;-74
2023/06/14 00:32:18;;;;;;;;;2.00;2.00;;;;;8.32;100.00;98323.25;4852899;28;101631;-74
2023/06/14 00:34:45;;;;;;;;;1.00;1.00;;;;;8.35;100.00;98335.50;4846089;28;103269;-74
2023/06/14 00:37:12;;;;;;;;;2.00;2.00;;;;;8.30;100.00;98329.84;4852741;28;101552;-74
2023/06/14 00:39:39;;;;;;;;;2.75;2.50;;;;;8.27;100.00;98331.06;4858111;28;103376;-73
2023/06/14 00:42:07;;;;;;;;;2.00;2.00;;;;;8.26;100.00;98333.94;4855868;28;101964;-74
2023/06/14 00:44:34;;;;;;;;;3.50;3.50;;;;;8.21;100.00;98336.38;4865213;28;103669;-74
2023/06/14 00:47:01;;;;;;;;;3.00;3.00;;;;;8.21;100.00;98331.81;4853310;28;101484;-74
2023/06/14 00:49:29;;;;;;;;;4.75;4.00;;;;;8.19;100.00;98333.03;4856938;28;108463;-74
2023/06/14 00:51:56;;;;;;;;;3.50;3.00;;;;;8.16;100.00;98330.72;4863610;28;102060;-73
2023/06/14 00:54:23;;;;;;;;;3.00;2.00;;;;;8.12;100.00;98332.97;4860231;28;103540;-74
2023/06/14 00:56:50;;;;;;;;;2.00;1.50;;;;;8.11;100.00;98320.53;4857143;28;101954;-74
2023/06/14 00:59:17;;;;;;;;;1.00;1.00;;;;;8.10;100.00;98324.25;4854992;28;101361;-74
2023/06/14 01:01:45;;;;;;;;;3.00;3.00;;;;;8.12;100.00;98321.34;4852253;28;101883;-74
2023/06/14 01:04:12;;;;;;;;;1.75;1.00;;;;;8.06;100.00;98307.63;4856525;28;103411;-74
2023/06/14 01:07:13;;;;;;;;;2.75;2.00;;;;;8.14;100.00;98316.63;4862364;28;101578;-74
2023/06/14 01:10:20;;;;;;;;;1.75;1.75;;;;;8.13;100.00;98320.34;4846311;28;104314;-74
2023/06/14 01:13:42;;;;;;;;;4.25;3.50;;;;;8.02;100.00;98313.59;4862215;28;101882;-73
2023/06/14 01:16:28;;;;;;;;;3.50;3.50;;;;;8.02;100.00;98316.28;4858283;28;107894;-73
2023/06/14 01:19:08;;;;;;;;;3.75;3.50;;;;;7.91;100.00;98314.97;4849538;28;102198;-73
2023/06/14 01:21:41;;;;;;;;;4.00;4.00;;;;;7.92;100.00;98308.56;4862620;28;101570;-73
2023/06/14 01:24:10;;;;;;;;;12.50;7.75;;;;;7.69;100.00;98278.28;4859571;28;102341;-73
2023/06/14 01:26:45;;;;;;;;;14.25;11.50;;;;;7.85;100.00;98309.47;4858156;28;103370;-73
2023/06/14 01:29:17;;;;;;;;;11.75;10.00;;;;;7.54;100.00;98304.38;4858926;28;101846;-73
2023/06/14 01:31:45;;;;;;;;;8.00;8.00;;;;;7.59;100.00;98307.34;4855670;28;101558;-73
2023/06/14 01:34:13;;;;;;;;;4.25;4.00;;;;;7.66;100.00;98302.84;4863523;28;101550;-73
2023/06/14 01:36:45;;;;;;;;;4.25;4.00;;;;;7.72;100.00;98304.81;4858729;28;107983;-73
2023/06/14 01:39:14;;;;;;;;;3.75;1.00;;;;;7.77;100.00;98290.78;4859692;28;101677;-73
2023/06/14 01:41:44;;;;;;;;;2.00;2.00;;;;;7.85;100.00;98304.94;4862402;28;101720;-73
2023/06/14 01:44:15;;;;;;;;;2.00;2.00;;;;;7.92;100.00;98315.78;4860887;28;101556;-73
2023/06/14 01:46:43;;;;;;;;;1.00;1.00;;;;;7.99;100.00;98309.44;4872342;28;108041;-73
2023/06/14 01:49:11;;;;;;;;;3.00;3.00;;;;;8.02;100.00;98300.97;4857640;28;101466;-73
2023/06/14 01:51:38;;;;;;;;;3.00;2.00;;;;;8.12;100.00;98305.19;4855012;28;101483;-73
2023/06/14 01:54:05;;;;;;;;;7.25;5.00;;;;;8.18;100.00;98309.81;4852047;28;101833;-73
2023/06/14 01:56:32;;;;;;;;;11.50;10.00;;;;;8.10;100.00;98307.28;4856079;28;103334;-74
2023/06/14 01:58:59;;;;;;;;;10.50;10.50;;;;;7.98;100.00;98294.31;4856846;28;102385;-73
2023/06/14 02:01:26;;;;;;;;;9.50;8.50;;;;;8.16;100.00;98295.72;4859651;28;101725;-73
2023/06/14 02:03:53;;;;;;;;;7.25;5.00;;;;;8.32;100.00;98295.50;4861126;28;101531;-73
2023/06/14 02:06:20;;;;;;;;;4.00;4.00;;;;;8.46;100.00;98308.03;4859652;28;103249;-73
2023/06/14 02:08:47;;;;;;;;;3.50;3.50;;;;;8.58;100.00;98292.16;4853593;28;101922;-73
2023/06/14 02:11:15;;;;;;;;;3.00;3.00;;;;;8.66;100.00;98295.53;4847150;28;103771;-73
2023/06/14 02:13:42;;;;;;;;;2.50;2.50;;;;;8.77;100.00;98307.66;4859360;28;101670;-73
2023/06/14 02:16:09;;;;;;;;;3.00;2.75;;;;;8.78;100.00;98293.97;4859591;28;108064;-73
2023/06/14 02:18:36;;;;;;;;;3.00;3.00;;;;;8.94;100.00;98304.44;4887467;28;102103;-73
2023/06/14 02:21:03;;;;;;;;;3.00;2.00;;;;;9.01;100.00;98300.94;4858111;28;102035;-73
2023/06/14 02:23:31;;;;;;;;;3.75;2.75;;;;;9.10;100.00;98314.06;4848388;28;103043;-73
2023/06/14 02:26:02;;;;;;;;;3.00;3.00;;;;;9.17;100.00;98300.63;4858474;28;103747;-73
2023/06/14 02:28:29;;;;;;;;;2.75;2.00;;;;;9.19;100.00;98294.00;4875489;28;101938;-74
2023/06/14 02:30:57;;;;;;;;;2.50;1.50;;;;;9.32;100.00;98304.06;4856367;28;101534;-73
2023/06/14 02:33:25;;;;;;;;;1.00;1.00;;;;;9.41;100.00;98303.66;4858049;28;101523;-73
2023/06/14 02:35:52;;;;;;;;;0.50;0.50;;;;;9.48;100.00;98292.06;4858321;28;103563;-73
2023/06/14 02:38:19;;;;;;;;;1.00;1.00;;;;;9.57;100.00;98294.38;4859100;28;102286;-73
2023/06/14 02:40:46;;;;;;;;;3.50;3.00;;;;;9.66;100.00;98295.03;4859649;28;101409;-73
2023/06/14 02:43:13;;;;;;;;;2.00;2.00;;;;;9.70;100.00;98286.34;4862713;28;101478;-74
2023/06/14 02:45:40;;;;;;;;;4.00;4.00;;;;;9.75;100.00;98291.97;4851236;28;107923;-74
2023/06/14 02:48:07;;;;;;;;;2.50;2.00;;;;;9.63;100.00;98274.69;4860664;28;102226;-73
2023/06/14 02:50:34;;;;;;;;;4.50;4.00;;;;;9.80;100.00;98294.03;4857682;28;101827;-73
2023/06/14 02:53:03;;;;;;;;;4.75;4.00;;;;;9.79;100.00;98279.72;4860180;28;101841;-74
2023/06/14 02:55:30;;;;;;;;;4.50;4.00;;;;;9.81;100.00;98283.06;4850979;28;103312;-73
2023/06/14 02:57:57;;;;;;;;;5.00;3.00;;;;;9.85;100.00;98284.31;4858600;28;101605;-73
2023/06/14 03:00:24;;;;;;;;;5.00;5.00;;;;;8.59;100.00;98070.19;4885525;28;101608;-73
2023/06/14 03:02:51;;;;;;;;;10.00;6.00;;;;;9.82;100.00;98264.97;4855632;28;101548;-74
2023/06/14 03:05:21;;;;;;;;;5.00;4.00;;;;;10.00;100.00;98291.38;4859054;28;103538;-74
2023/06/14 03:07:50;;;;;;;;;3.25;3.00;;;;;10.00;100.00;98289.50;4855284;28;101869;-74
2023/06/14 03:10:17;;;;;;;;;6.75;5.50;;;;;9.86;100.00;98263.53;4855748;28;102286;-74
2023/06/14 03:12:44;;;;;;;;;4.50;3.50;;;;;10.01;100.00;98272.28;4857710;28;101838;-74
2023/06/14 03:15:12;;;;;;;;;3.75;3.75;;;;;10.21;100.00;98273.19;4854342;28;108064;-74
2023/06/14 03:17:40;;;;;;;;;1.25;1.25;;;;;10.32;100.00;98284.38;4853234;28;101496;-74
2023/06/14 03:20:08;;;;;;;;;1.50;1.00;;;;;10.34;100.00;98277.75;4851793;28;101680;-73
2023/06/14 03:22:35;;;;;;;;;4.00;3.75;;;;;10.41;100.00;98273.16;4855404;28;101794;-74
2023/06/14 03:25:04;;;;;;;;;4.00;4.00;;;;;10.46;100.00;98276.06;4854357;28;103497;-74
2023/06/14 03:27:31;;;;;;;;;9.00;7.25;;;;;10.47;100.00;98285.03;4854847;28;101842;-74
2023/06/14 03:29:58;;;;;;;;;6.00;4.00;;;;;10.51;100.00;98275.44;4853529;28;101665;-74
2023/06/14 03:32:25;;;;;;;;;7.25;5.25;;;;;10.54;100.00;98285.84;4859662;28;101861;-74
2023/06/14 03:34:52;;;;;;;;;5.50;4.50;;;;;10.61;100.00;98282.13;4848141;28;103874;-74
2023/06/14 03:37:19;;;;;;;;;6.00;4.00;;;;;10.69;100.00;98287.31;4848853;28;101679;-74
2023/06/14 03:39:47;;;;;;;;;2.25;2.25;;;;;10.78;100.00;98284.38;4857920;28;101388;-74
2023/06/14 03:42:14;;;;;;;;;2.75;2.00;;;;;10.82;100.00;98291.03;4885329;28;101616;-74
2023/06/14 03:44:41;;;;;;;;;3.75;3.00;;;;;10.84;100.00;98292.50;4858455;28;108133;-74
2023/06/14 03:47:08;;;;;;;;;3.00;3.00;;;;;10.88;100.00;98296.44;4851625;28;102790;-74
2023/06/14 03:49:36;;;;;;;;;3.25;2.00;;;;;10.88;100.00;98301.00;4850392;28;101689;-74
2023/06/14 03:52:04;;;;;;;;;1.50;1.50;;;;;10.96;100.00;98298.06;4884316;28;101685;-73
2023/06/14 03:54:32;;;;;;;;;3.75;3.00;;;;;10.96;100.00;98295.38;4856389;28;103348;-74
2023/06/14 03:57:02;;;;;;;;;3.50;3.25;;;;;11.02;100.00;98299.94;4857476;28;101450;-74
2023/06/14 03:59:29;;;;;;;;;3.00;3.00;;;;;10.99;100.00;98293.06;4855582;28;101643;-74
2023/06/14 04:01:56;;;;;;;;;5.25;3.00;;;;;11.09;100.00;98298.88;4858685;28;101809;-74
2023/06/14 04:04:28;;;;;;;;;3.75;3.00;;;;;11.13;100.00;98293.88;4855984;28;103451;-74
2023/06/14 04:06:58;;;;;;;;;5.75;4.00;;;;;11.10;100.00;98295.16;4853351;28;102354;-74
2023/06/14 04:09:25;;;;;;;;;9.00;7.00;;;;;11.08;100.00;98290.97;4852272;28;101449;-74
2023/06/14 04:11:52;;;;;;;;;6.25;6.25;;;;;11.13;100.00;98300.13;4855913;28;101751;-74
2023/06/14 04:14:20;;;;;;;;;5.00;4.00;;;;;11.20;100.00;98289.28;4856347;28;103323;-74
2023/06/14 04:16:48;;;;;;;;;4.75;4.75;;;;;11.20;100.00;98278.47;4855604;28;101814;-73
2023/06/14 04:19:15;;;;;;;;;9.75;6.25;;;;;11.25;100.00;98286.78;4853694;28;101581;-74
2023/06/14 04:21:43;;;;;;;;;6.25;5.75;;;;;11.32;100.00;98301.13;4855861;28;101617;-74
2023/06/14 04:24:13;;;;;;;;;4.00;4.00;;;;;11.13;100.00;98256.81;4851946;28;108287;-74
2023/06/14 04:26:44;;;;;;;;;3.25;3.25;;;;;11.46;100.00;98310.84;4869788;28;102244;-74
2023/06/14 04:29:16;;;;;;;;;5.00;4.75;;;;;11.46;100.00;98297.31;4857528;28;101590;-74
2023/06/14 04:31:44;;;;;;;;;6.00;6.00;;;;;11.48;100.00;98303.34;4885687;28;101564;-74
2023/06/14 04:34:18;;;;;;;;;5.50;5.50;;;;;11.48;100.00;98295.22;4855044;28;108090;-74
2023/06/14 04:36:53;;;;;;;;;5.50;5.00;;;;;11.56;100.00;98305.84;4851398;28;101529;-74
2023/06/14 04:39:21;;;;;;;;;10.50;8.00;;;;;11.61;100.00;98297.91;4852554;28;101556;-74
2023/06/14 04:41:52;;;;;;;;;10.25;9.25;;;;;11.56;100.00;98305.84;4855021;28;101607;-74
2023/06/14 04:44:24;;;;;;;;;11.00;8.25;;;;;11.58;100.00;98298.31;4853260;28;103361;-74
2023/06/14 04:46:51;;;;;;;;;12.25;10.00;;;;;11.59;100.00;98294.56;4857041;28;101715;-74
2023/06/14 04:49:18;;;;;;;;;9.75;8.00;;;;;11.57;100.00;98291.22;4850908;28;101715;-74
2023/06/14 04:51:46;;;;;;;;;10.50;9.75;;;;;11.66;100.00;98289.13;4859093;28;101642;-74
2023/06/14 04:54:14;;;;;;;;;5.00;5.00;;;;;11.79;100.00;98299.09;4860695;28;103525;-74
2023/06/14 04:56:42;;;;;;;;;12.50;10.25;;;;;11.68;100.00;98292.44;4851448;28;101761;-74
2023/06/14 04:59:11;;;;;;;;;7.50;7.00;;;;;11.72;100.00;98271.16;4856119;28;101547;-74
2023/06/14 05:01:38;;;;;;;;;7.00;6.00;;;;;11.94;100.00;98296.91;4858069;28;102910;-74
2023/06/14 05:04:05;;;;;;;;;9.00;9.00;;;;;11.98;100.00;98298.13;4853890;28;103725;-74
2023/06/14 05:06:32;;;;;;;;;8.50;6.75;;;;;12.05;100.00;98310.63;4850699;28;101588;-74
2023/06/14 05:08:59;;;;;;;;;6.00;5.50;;;;;12.10;100.00;98307.25;4857397;28;101610;-74
2023/06/14 05:11:27;;;;;;;;;6.25;4.25;;;;;12.19;100.00;98305.94;4854407;28;101825;-74
2023/06/14 05:13:54;;;;;;;;;5.50;5.50;;;;;12.25;100.00;98306.94;4856250;28;103538;-74
2023/06/14 05:16:25;;;;;;;;;12.00;12.00;;;;;12.18;100.00;98309.69;4854379;28;101541;-74
2023/06/14 05:18:52;;;;;;;;;7.25;6.00;;;;;12.27;100.00;98313.81;4869369;28;101566;-75
2023/06/14 05:21:19;;;;;;;;;5.25;4.00;;;;;12.33;100.00;98314.81;4859000;28;101570;-74
2023/06/14 05:23:47;;;;;;;;;9.50;8.50;;;;;12.42;100.00;98319.75;4854293;28;103340;-74
2023/06/14 05:26:14;;;;;;;;;5.00;5.00;;;;;12.45;100.00;98311.19;4858172;28;101598;-73
2023/06/14 05:28:41;;;;;;;;;5.25;5.25;;;;;12.49;100.00;98323.25;4861454;28;101825;-74
2023/06/14 05:31:08;;;;;;;;;5.25;5.00;;;;;12.18;100.00;98281.75;4859719;28;103048;-75
2023/06/14 05:33:35;;;;;;;;;5.25;5.25;;;;;12.45;100.00;98324.75;4859331;28;103444;-76
2023/06/14 05:36:02;;;;;;;;;2.50;2.50;;;;;12.54;100.00;98319.88;4847366;28;101918;-75
2023/06/14 05:38:32;;;;;;;;;4.75;4.00;;;;;12.60;100.00;98321.72;4844692;28;103960;-74
2023/06/14 05:40:59;;;;;;;;;6.25;5.50;;;;;12.59;100.00;98325.47;4849941;28;101644;-74
2023/06/14 05:43:26;;;;;;;;;9.25;7.75;;;;;12.61;100.00;98326.06;4852295;28;103471;-74
2023/06/14 05:45:53;;;;;;;;;9.00;7.50;;;;;12.63;100.00;98325.84;4852418;28;101919;-74
2023/06/14 05:48:21;;;;;;;;;11.50;9.00;;;;;12.56;100.00;98325.09;4855902;28;101470;-73
2023/06/14 05:50:48;;;;;;;;;12.00;8.00;;;;;12.68;100.00;98331.44;4849638;28;101933;-74
2023/06/14 05:53:15;;;;;;;;;6.75;6.25;;;;;12.75;100.00;98334.94;4858800;28;103423;-74
2023/06/14 06:11:26;;;;;;;;;14.00;13.00;;;;;12.69;100.00;98327.69;4316450;23;105840;-73
2023/06/14 06:14:03;;;;;;;;;13.50;11.00;;;;;12.64;100.00;98324.81;4830653;28;101793;-73
2023/06/14 06:16:30;;;;;;;;;13.00;13.00;;;;;12.59;100.00;98327.34;4834708;28;102002;-73
2023/06/14 06:18:57;;;;;;;;;11.50;9.25;;;;;12.75;100.00;98327.63;4829996;28;103411;-73
2023/06/14 06:21:24;;;;;;;;;11.50;10.00;;;;;12.72;100.00;98329.94;4834718;28;101763;-73
2023/06/14 06:26:53;;;;;;;;;9.25;7.00;;;;;12.93;100.00;98332.25;4840557;23;104040;-79
2023/06/14 06:29:20;;;;;;;;;8.00;6.00;;;;;12.97;100.00;98336.19;4852322;28;103537;-80
2023/06/14 06:31:48;;;;;;;;;14.00;12.25;;;;;12.80;100.00;98329.66;4845360;28;102440;-81
2023/06/14 06:34:15;;;;;;;;;17.00;17.00;;;;;12.84;100.00;98339.03;4840208;28;102448;-80
2023/06/14 06:36:42;;;;;;;;;21.25;19.00;;;;;12.77;100.00;98341.81;4846473;28;102574;-80
2023/06/14 06:39:14;;;;;;;;;16.00;16.00;;;;;12.59;100.00;98298.34;4856317;28;104095;-80
2023/06/14 06:41:41;;;;;;;;;20.00;12.00;;;;;13.05;100.00;98346.78;4853176;28;102304;-80
2023/06/14 06:44:10;;;;;;;;;16.00;14.00;;;;;13.24;100.00;98344.94;4849458;28;102448;-80
2023/06/14 06:46:41;;;;;;;;;16.00;13.75;;;;;13.28;100.00;98354.31;4839797;28;102248;-80
2023/06/14 06:49:09;;;;;;;;;23.75;17.50;;;;;13.32;100.00;98353.66;4851680;28;104287;-80
2023/06/14 06:51:40;;;;;;;;;25.00;18.50;;;;;13.22;100.00;98338.94;4837847;28;102310;-79
2023/06/14 06:54:08;;;;;;;;;16.00;14.75;;;;;13.32;100.00;98356.38;4791588;28;104739;-78
2023/06/14 06:56:35;;;;;;;;;24.25;20.00;;;;;13.30;100.00;98365.78;4856693;28;102149;-79
2023/06/14 06:59:02;;;;;;;;;26.50;20.75;;;;;13.27;100.00;98358.09;4852907;28;104046;-79
2023/06/14 07:01:29;;;;;;;;;22.50;19.00;;;;;13.34;100.00;98354.25;4730859;28;102099;-79
2023/06/14 07:03:56;;;;;;;;;21.50;17.25;;;;;13.44;100.00;98361.03;4856106;28;102470;-79
2023/06/14 07:06:27;;;;;;;;;17.50;16.00;;;;;13.47;100.00;98363.31;4771741;28;102678;-79
2023/06/14 07:08:54;;;;;;;;;18.50;16.25;;;;;13.37;100.00;98369.28;4854442;28;104094;-79
2023/06/14 07:11:21;;;;;;;;;16.50;15.75;;;;;13.30;100.00;98365.78;4853322;28;101995;-79
2023/06/14 07:13:49;;;;;;;;;19.25;16.75;;;;;13.33;100.00;98374.31;4764722;28;107565;-79
2023/06/14 07:16:16;;;;;;;;;16.00;15.25;;;;;13.36;100.00;98376.59;4802002;28;103186;-78
2023/06/14 07:18:43;;;;;;;;;16.25;14.75;;;;;13.43;100.00;98372.94;4816545;28;104150;-78
2023/06/14 07:21:11;;;;;;;;;25.25;17.25;;;;;13.37;100.00;98378.22;4769792;28;103590;-79
2023/06/14 07:23:37;;;;;;;;;20.50;16.50;;;;;13.30;100.00;98380.19;4857835;28;102404;-79
2023/06/14 07:26:05;;;;;;;;;11.75;11.25;;;;;13.33;100.00;98374.31;4855970;28;107557;-78
2023/06/14 07:28:32;;;;;;;;;10.75;9.50;;;;;13.39;100.00;98380.72;4854202;28;105244;-78
2023/06/14 07:30:59;;;;;;;;;15.50;9.50;;;;;13.39;100.00;98387.00;4858736;28;102003;-79
2023/06/14 07:33:26;;;;;;;;;15.50;10.25;;;;;13.38;100.00;98388.03;4849875;28;101974;-77
2023/06/14 07:35:53;;;;;;;;;9.00;8.00;;;;;13.37;100.00;98394.53;4856552;28;102420;-78
2023/06/14 07:38:20;;;;;;;;;11.75;9.75;;;;;13.31;100.00;98398.16;4832745;28;104187;-78
2023/06/14 07:40:47;;;;;;;;;10.00;7.00;;;;;13.27;100.00;98399.66;4850989;28;101882;-79
2023/06/14 07:43:15;;;;;;;;;7.25;6.00;;;;;13.33;100.00;98396.03;4856309;28;103624;-79
2023/06/14 07:45:42;;;;;;;;;9.50;9.25;;;;;13.27;100.00;98402.38;4707795;28;102444;-80
2023/06/14 07:48:23;;;;;;;;;7.00;6.50;;;;;13.35;100.00;98404.78;4845900;28;104971;-79
2023/06/14 07:50:53;;;;;;;;;6.00;4.00;;;;;13.35;100.00;98399.38;4857294;28;102585;-79
2023/06/14 07:53:21;;;;;;;;;5.00;3.00;;;;;13.39;100.00;98405.16;4855305;28;103725;-79
2023/06/14 07:55:48;;;;;;;;;3.25;3.25;;;;;13.47;100.00;98401.31;4731043;28;102199;-79
2023/06/14 07:58:19;;;;;;;;;4.00;3.00;;;;;13.61;100.00;98402.84;4840392;28;104011;-79
2023/06/14 08:00:47;;;;;;;;;4.00;4.00;;;;;13.56;100.00;98408.13;4854979;28;102032;-79
2023/06/14 08:03:14;;;;;;;;;4.00;3.00;;;;;13.68;100.00;98409.06;4836844;28;102377;-79
2023/06/14 08:05:41;;;;;;;;;2.00;2.00;;;;;13.72;100.00;98413.00;4861792;28;102562;-78
2023/06/14 08:08:08;;;;;;;;;4.25;4.00;;;;;13.32;100.00;98407.97;4852833;28;104025;-78
2023/06/14 08:10:35;;;;;;;;;4.00;4.00;;;;;13.43;100.00;98405.53;4856520;28;101842;-78
2023/06/14 08:13:02;;;;;;;;;4.00;4.00;;;;;13.42;100.00;98406.63;4854230;28;102046;-79
2023/06/14 08:15:29;;;;;;;;;3.00;2.50;;;;;13.37;100.00;98402.66;4707232;28;102801;-78
2023/06/14 08:17:57;;;;;;;;;2.00;2.00;;;;;13.45;100.00;98404.28;4854089;28;103783;-79
2023/06/14 08:20:25;;;;;;;;;1.75;1.75;;;;;13.53;100.00;98397.72;4848996;28;101938;-78
2023/06/14 08:22:55;;;;;;;;;1.00;1.00;;;;;13.62;100.00;98399.09;4700706;28;102181;-79
2023/06/14 08:25:22;;;;;;;;;4.75;3.00;;;;;13.49;100.00;98399.22;4849176;28;102302;-79
2023/06/14 08:27:50;;;;;;;;;2.50;2.00;;;;;13.67;100.00;98410.13;4849683;28;103926;-78
2023/06/14 08:30:17;;;;;;;;;2.00;1.25;;;;;13.70;100.00;98401.50;4828569;28;103589;-80
2023/06/14 08:32:44;;;;;;;;;3.00;3.00;;;;;13.40;100.00;98363.38;4854599;28;102076;-79
2023/06/14 08:35:14;;;;;;;;;4.75;4.00;;;;;13.73;100.00;98412.75;4854594;28;102009;-79
2023/06/14 08:37:41;;;;;;;;;2.00;2.00;;;;;13.87;100.00;98412.63;4834262;28;104875;-79
2023/06/14 08:40:20;;;;;;;;;2.00;2.00;;;;;13.92;100.00;98415.47;4849281;28;102228;-79
2023/06/14 08:42:55;;;;;;;;;3.00;2.00;;;;;13.92;100.00;98410.88;4750003;28;102457;-80
2023/06/14 08:45:23;;;;;;;;;5.50;4.50;;;;;13.96;98.52;98405.81;4840362;28;102703;-79
2023/06/14 08:47:57;;;;;;;;;5.25;4.25;;;;;13.88;100.00;98417.81;4754658;28;108323;-78
2023/06/14 08:50:29;;;;;;;;;1.75;1.75;;;;;14.02;100.00;98413.88;4839857;28;107647;-79
2023/06/14 08:53:02;;;;;;;;;5.25;5.00;;;;;13.80;99.14;98423.56;4854688;28;102578;-79
2023/06/14 08:55:32;;;;;;;;;5.00;4.50;;;;;13.79;100.00;98424.59;4854087;28;102553;-78
2023/06/14 08:58:03;;;;;;;;;4.00;4.00;;;;;13.84;99.66;98414.72;4852963;28;104011;-79
2023/06/14 09:00:32;;;;;;;;;4.00;3.50;;;;;13.96;100.00;98428.38;4854710;28;102734;-81
2023/06/14 09:03:00;;;;;;;;;3.75;3.75;;;;;13.94;98.95;98429.69;4852740;28;102265;-79
2023/06/14 09:05:28;;;;;;;;;2.00;2.00;;;;;13.94;100.00;98438.66;4858656;28;103921;-78
2023/06/14 09:08:00;;;;;;;;;5.00;4.00;;;;;13.98;99.25;98437.16;4850085;28;108844;-80
2023/06/14 09:10:37;;;;;;;;;2.25;2.25;;;;;13.88;99.15;98425.97;4852677;28;101997;-78
2023/06/14 09:13:05;;;;;;;;;7.50;6.75;;;;;13.72;100.00;98445.59;4846993;28;102168;-80
2023/06/14 09:15:33;;;;;;;;;6.00;6.00;;;;;13.68;100.00;98441.66;4858904;28;102442;-79
2023/06/14 09:18:03;;;;;;;;;6.00;6.00;;;;;13.70;100.00;98444.97;4862752;28;104160;-81
2023/06/14 09:20:31;;;;;;;;;6.25;5.50;;;;;13.68;100.00;98450.66;4854381;28;102270;-79
2023/06/14 09:23:00;;;;;;;;;2.75;2.75;;;;;13.79;100.00;98446.34;4852576;28;102130;-79
2023/06/14 09:25:27;;;;;;;;;4.00;3.50;;;;;13.91;100.00;98446.44;4859511;28;102348;-81
2023/06/14 09:28:08;;;;;;;;;2.75;2.75;;;;;14.00;100.00;98448.66;4845848;28;104190;-78
2023/06/14 09:30:39;;;;;;;;;3.00;3.00;;;;;14.00;100.00;98447.81;4857754;28;102652;-81
2023/06/14 09:33:07;;;;;;;;;10.00;9.00;;;;;13.72;100.00;98432.00;4854851;28;102000;-79
2023/06/14 09:35:35;;;;;;;;;5.50;5.50;;;;;13.72;100.00;98432.84;4849889;28;102453;-78
2023/06/14 09:38:03;;;;;;;;;7.00;7.00;;;;;13.58;100.00;98446.78;4858028;28;103988;-79
2023/06/14 09:40:35;;;;;;;;;6.50;6.25;;;;;13.83;100.00;98450.28;4784583;28;102989;-80
2023/06/14 09:43:06;;;;;;;;;4.75;4.00;;;;;13.98;100.00;98452.63;4853506;28;103189;-80
2023/06/14 09:45:33;;;;;;;;;5.00;4.25;;;;;13.89;100.00;98427.63;4845907;28;102556;-81
2023/06/14 09:48:02;;;;;;;;;4.25;4.25;;;;;14.08;100.00;98442.06;4854641;28;103985;-80
2023/06/14 09:50:35;;;;;;;;;3.00;3.00;;;;;14.27;100.00;98444.53;4855819;28;102154;-79
2023/06/14 09:53:11;;;;;;;;;5.50;5.00;;;;;14.46;100.00;98433.66;4851031;28;102537;-80
2023/06/14 09:55:41;;;;;;;;;4.00;4.00;;;;;14.17;100.00;98438.81;4835188;28;102457;-79
2023/06/14 09:58:11;;;;;;;;;3.50;3.00;;;;;14.46;100.00;98444.53;4736726;28;105738;-78
2023/06/14 10:00:40;;;;;;;;;3.00;3.00;;;;;14.60;100.00;98429.69;4849664;28;102357;-78
2023/06/14 10:03:24;;;;;;;;;3.50;3.50;;;;;14.67;100.00;98441.31;4856326;28;101817;-78
2023/06/14 10:05:52;;;;;;;;;3.50;3.00;;;;;14.62;100.00;98425.69;4857582;28;102402;-78
2023/06/14 10:08:24;;;;;;;;;3.00;2.50;;;;;14.74;100.00;98437.44;4850438;28;104201;-78
2023/06/14 10:10:52;;;;;;;;;4.00;3.00;;;;;14.40;100.00;98448.19;4859952;28;102633;-78
2023/06/14 10:13:20;;;;;;;;;5.25;4.75;;;;;14.14;100.00;98436.53;4856630;28;101979;-78
2023/06/14 10:16:09;;;;;;;;;5.25;4.50;;;;;14.22;100.00;98444.41;4857395;28;102147;-78
2023/06/14 10:18:48;;;;;;;;;5.75;4.25;;;;;14.18;100.00;98435.00;4851005;28;104201;-78
2023/06/14 10:21:27;;;;;;;;;5.00;5.00;;;;;14.40;100.00;98429.16;4714059;28;103241;-78
2023/06/14 10:24:00;;;;;;;;;4.25;3.75;;;;;14.42;100.00;98432.44;4849732;28;102057;-78
2023/06/14 10:26:27;;;;;;;;;3.50;3.25;;;;;14.55;100.00;98437.72;4856623;28;101991;-79
2023/06/14 10:29:06;;;;;;;;;4.00;4.00;;;;;14.66;100.00;98439.66;4852285;28;104025;-79
2023/06/14 10:31:42;;;;;;;;;3.00;3.00;;;;;14.55;100.00;98443.97;4855148;28;103023;-79
2023/06/14 10:34:09;;;;;;;;;4.00;4.00;;;;;14.39;100.00;98441.06;4854808;28;102281;-79
2023/06/14 10:36:40;;;;;;;;;3.00;2.25;;;;;14.64;100.00;98441.75;4856120;28;102674;-79
2023/06/14 10:39:14;;;;;;;;;4.00;3.00;;;;;14.58;100.00;98420.94;4851390;28;104119;-79
2023/06/14 10:41:41;;;;;;;;;4.50;4.00;;;;;14.48;100.00;98423.38;4744815;28;102120;-79
2023/06/14 10:44:15;;;;;;;;;4.25;4.00;;;;;14.56;100.00;98442.09;4851181;28;102075;-78
2023/06/14 10:46:47;;;;;;;;;3.25;3.25;;;;;14.55;100.00;98443.16;4862551;28;102746;-78
2023/06/14 10:49:45;;;;;;;;;0.00;0.00;;;;;14.62;100.00;98438.47;4843815;28;104147;-79
2023/06/14 10:52:18;;;;;;;;;3.00;3.00;;;;;14.59;100.00;98428.84;4849148;28;102169;-80
2023/06/14 10:55:05;;;;;;;;;2.75;2.75;;;;;14.75;100.00;98430.09;4853344;28;102514;-78
2023/06/14 10:57:33;;;;;;;;;4.00;4.00;;;;;14.88;100.00;98431.78;4852861;28;102420;-81
2023/06/14 11:00:22;;;;;;;;;4.00;3.00;;;;;14.98;100.00;98432.06;4852317;28;104262;-79
2023/06/14 11:03:07;;;;;;;;;4.00;4.00;;;;;15.19;100.00;98431.50;4850748;28;107959;-78
2023/06/14 11:06:00;;;;;;;;;4.50;4.50;;;;;15.28;100.00;98432.81;4726790;28;102310;-79
2023/06/14 11:08:36;;;;;;;;;4.50;4.50;;;;;15.66;100.00;98426.94;4855695;28;103436;-79
2023/06/14 11:11:08;;;;;;;;;4.00;4.00;;;;;15.90;100.00;98420.38;4856742;28;104017;-79
2023/06/14 11:13:39;;;;;;;;;6.00;5.00;;;;;15.88;96.66;98419.81;4841552;28;102369;-80
2023/06/14 11:16:14;;;;;;;;;6.75;6.75;;;;;16.12;97.20;98425.22;4851201;28;102075;-80
2023/06/14 11:18:42;;;;;;;;;4.75;4.00;;;;;16.27;96.04;98411.88;4844267;28;102704;-80
2023/06/14 11:21:09;;;;;;;;;4.00;4.00;;;;;16.55;94.73;98411.91;4837239;28;104016;-79
2023/06/14 11:23:37;;;;;;;;;7.00;6.00;;;;;16.25;93.71;98412.16;4699280;28;102560;-79
2023/06/14 11:26:04;;;;;;;;;4.00;3.75;;;;;16.45;91.81;98403.53;4762275;28;102175;-80
2023/06/14 11:28:40;;;;;;;;;5.25;4.00;;;;;16.89;94.74;98407.38;4805257;28;102366;-79
2023/06/14 11:31:09;;;;;;;;;3.00;3.00;;;;;17.09;89.39;98395.97;4738458;28;104237;-81
2023/06/14 11:33:36;;;;;;;;;3.00;3.00;;;;;17.44;87.38;98410.22;4851029;28;102141;-79
2023/06/14 11:36:08;;;;;;;;;2.33;2.00;;;;;17.49;86.21;98407.56;4845977;28;103565;-79
2023/06/14 11:38:37;;;;;;;;;2.00;2.00;;;;;17.70;86.11;98403.25;4857537;28;102565;-80
2023/06/14 11:41:05;;;;;;;;;5.00;5.00;;;;;17.53;82.58;98408.72;4848633;28;104227;-79
2023/06/14 11:43:34;;;;;;;;;3.67;3.67;;;;;17.60;86.04;98406.69;4778208;28;104900;-80
2023/06/14 11:46:01;;;;;;;;;3.00;2.33;;;;;17.58;86.71;98406.09;4849729;28;102493;-80
2023/06/14 11:48:42;;;;;;;;;2.00;2.00;;;;;17.24;83.17;98404.44;4797601;28;102345;-80